Time;durP1;ratioP1;P1;durP2;ratioP2;P2;SDS_P1;SDS_P2;PMS_P1;PMS_P2;Temp;Humidity;BMP_temperature;BMP_pressure;BME280_temperature;BME280_humidity;BME280_pressure;Samples;Min_cycle;Max_cycle;Signal;HPM_P1;HPM_P2
2021/07/04 00:02:07;;;;;;;12.02;10.93;;;19.10;99.90;;;;;;5083667;28;20497;-65
2021/07/04 00:04:33;;;;;;;13.02;11.75;;;19.10;99.90;;;;;;5098767;28;20125;-65
2021/07/04 00:06:59;;;;;;;12.32;11.10;;;19.10;99.90;;;;;;5080915;28;20466;-66
2021/07/04 00:09:26;;;;;;;11.65;10.45;;;19.10;99.90;;;;;;5082086;28;20050;-66
2021/07/04 00:11:52;;;;;;;11.55;10.45;;;19.10;99.90;;;;;;5084606;28;20036;-66
2021/07/04 00:14:18;;;;;;;12.10;10.90;;;19.00;99.90;;;;;;5085197;28;20039;-65
2021/07/04 00:16:44;;;;;;;12.63;11.35;;;19.10;99.90;;;;;;5082352;28;20418;-65
2021/07/04 00:19:10;;;;;;;12.98;11.80;;;19.00;99.90;;;;;;5083255;28;20040;-65
2021/07/04 00:21:36;;;;;;;13.20;11.90;;;19.00;99.90;;;;;;5083284;28;20374;-65
2021/07/04 00:24:03;;;;;;;12.65;10.85;;;19.00;99.90;;;;;;5083184;28;20032;-65
2021/07/04 00:26:29;;;;;;;12.68;11.40;;;19.00;99.90;;;;;;5083622;28;20062;-65
2021/07/04 00:28:54;;;;;;;13.40;12.10;;;19.00;99.90;;;;;;5083165;28;20482;-65
2021/07/04 00:31:20;;;;;;;13.20;12.00;;;19.00;99.90;;;;;;5080058;28;20032;-65
2021/07/04 00:33:46;;;;;;;14.05;11.90;;;19.00;99.90;;;;;;5084096;28;20032;-66
2021/07/04 00:36:11;;;;;;;13.68;12.38;;;18.90;99.90;;;;;;5083747;28;20050;-65
2021/07/04 00:38:37;;;;;;;12.60;11.50;;;18.90;99.90;;;;;;5081557;28;20078;-65
2021/07/04 00:41:04;;;;;;;12.50;11.30;;;18.90;99.90;;;;;;5083109;28;20394;-65
2021/07/04 00:43:30;;;;;;;12.13;11.02;;;18.90;99.90;;;;;;5084669;28;20456;-65
2021/07/04 00:45:56;;;;;;;13.35;11.00;;;18.90;99.90;;;;;;5078798;28;20032;-65
2021/07/04 00:48:22;;;;;;;14.40;11.95;;;18.90;99.90;;;;;;5081847;28;20386;-65
2021/07/04 00:50:49;;;;;;;14.05;11.90;;;18.90;99.90;;;;;;5083576;28;20151;-66
2021/07/04 00:53:14;;;;;;;13.15;11.85;;;18.90;99.90;;;;;;5084239;28;20058;-65
2021/07/04 00:55:41;;;;;;;12.32;11.23;;;18.90;99.90;;;;;;5083425;28;20425;-65
2021/07/04 00:58:08;;;;;;;13.23;11.82;;;18.90;99.90;;;;;;5083714;28;20083;-66
2021/07/04 01:00:36;;;;;;;12.27;11.07;;;18.80;99.90;;;;;;5080154;28;20035;-66
2021/07/04 01:03:02;;;;;;;13.30;11.70;;;18.90;99.90;;;;;;5085249;28;21515;-65
2021/07/04 01:05:32;;;;;;;14.18;12.90;;;18.80;99.90;;;;;;5083949;28;20032;-66
2021/07/04 01:08:01;;;;;;;14.82;13.45;;;18.90;99.90;;;;;;5084161;28;20120;-66
2021/07/04 01:10:29;;;;;;;15.40;13.93;;;18.80;99.90;;;;;;5080227;28;20493;-65
2021/07/04 01:12:56;;;;;;;15.63;12.18;;;18.80;99.90;;;;;;5082584;28;20071;-65
2021/07/04 01:15:25;;;;;;;16.63;13.70;;;18.80;99.90;;;;;;5079467;28;20043;-66
2021/07/04 01:17:53;;;;;;;12.90;11.65;;;18.80;99.90;;;;;;5082938;28;20041;-66
2021/07/04 01:20:20;;;;;;;15.02;13.65;;;18.80;99.90;;;;;;5078419;28;20063;-65
2021/07/04 01:22:59;;;;;;;15.50;13.93;;;18.80;99.90;;;;;;5085360;28;20137;-65
2021/07/04 01:25:26;;;;;;;17.20;14.93;;;18.80;99.90;;;;;;5078192;28;20036;-65
2021/07/04 01:27:53;;;;;;;15.45;14.05;;;18.80;99.90;;;;;;5083264;28;20036;-65
2021/07/04 01:30:20;;;;;;;15.93;14.45;;;18.80;99.90;;;;;;5080773;28;20031;-65
2021/07/04 01:32:46;;;;;;;16.67;15.05;;;18.80;99.90;;;;;;5084264;28;20036;-65
2021/07/04 01:35:12;;;;;;;16.60;14.70;;;18.80;99.90;;;;;;5082665;28;20037;-65
2021/07/04 01:37:38;;;;;;;17.65;15.85;;;18.80;99.90;;;;;;5078639;28;20047;-65
2021/07/04 01:40:05;;;;;;;18.98;16.23;;;18.80;99.90;;;;;;5077046;28;20037;-66
2021/07/04 01:42:30;;;;;;;17.02;15.27;;;18.80;99.90;;;;;;5078269;28;20486;-65
2021/07/04 01:44:56;;;;;;;15.85;14.35;;;18.70;99.90;;;;;;5078116;28;20113;-65
2021/07/04 01:47:22;;;;;;;17.02;15.43;;;18.70;99.90;;;;;;5080704;28;20043;-65
2021/07/04 01:49:48;;;;;;;18.60;16.30;;;18.70;99.90;;;;;;5080093;28;20074;-66
2021/07/04 01:52:13;;;;;;;17.83;16.00;;;18.70;99.90;;;;;;5075806;28;20158;-66
2021/07/04 01:54:39;;;;;;;18.25;16.48;;;18.70;99.90;;;;;;5083528;28;20036;-66
2021/07/04 01:57:12;;;;;;;17.50;15.73;;;18.70;99.90;;;;;;5081898;28;20047;-66
2021/07/04 01:59:42;;;;;;;18.67;16.60;;;18.70;99.90;;;;;;5081130;28;20068;-65
2021/07/04 02:02:09;;;;;;;18.42;15.88;;;18.70;99.90;;;;;;5083798;28;20078;-65
2021/07/04 02:04:41;;;;;;;17.35;15.85;;;18.70;99.90;;;;;;5082094;28;20715;-65
2021/07/04 02:07:15;;;;;;;18.45;16.60;;;18.60;99.90;;;;;;5082660;28;20614;-66
2021/07/04 02:09:49;;;;;;;17.95;16.15;;;18.60;99.90;;;;;;5078604;28;20048;-65
2021/07/04 02:12:17;;;;;;;16.95;15.48;;;18.60;99.90;;;;;;5082306;28;20041;-65
2021/07/04 02:14:52;;;;;;;17.58;15.77;;;18.50;99.90;;;;;;5082753;28;22591;-65
2021/07/04 02:17:17;;;;;;;18.02;16.30;;;18.60;99.90;;;;;;5082602;28;20047;-65
2021/07/04 02:19:43;;;;;;;19.08;17.08;;;18.60;99.90;;;;;;5082947;28;20032;-65
2021/07/04 02:22:11;;;;;;;21.40;17.33;;;18.60;99.90;;;;;;5078351;28;20048;-65
2021/07/04 02:24:38;;;;;;;19.17;17.15;;;18.50;99.90;;;;;;5081297;28;20040;-65
2021/07/04 02:27:05;;;;;;;20.95;16.58;;;18.50;99.90;;;;;;5083143;28;20535;-65
2021/07/04 02:29:31;;;;;;;19.90;17.70;;;18.50;99.90;;;;;;5083941;28;20039;-65
2021/07/04 02:31:57;;;;;;;20.90;16.02;;;18.50;99.90;;;;;;5085571;28;20125;-65
2021/07/04 02:34:23;;;;;;;19.27;16.38;;;18.50;99.90;;;;;;5083977;28;20112;-65
2021/07/04 02:36:48;;;;;;;23.25;18.10;;;18.50;99.90;;;;;;5085969;28;20121;-65
2021/07/04 02:39:14;;;;;;;18.88;16.98;;;18.60;99.90;;;;;;5084437;28;20036;-65
2021/07/04 02:41:42;;;;;;;18.20;16.40;;;18.50;99.90;;;;;;5086661;28;20135;-66
2021/07/04 02:44:09;;;;;;;20.30;18.23;;;18.50;99.90;;;;;;5082588;28;20109;-65
2021/07/04 02:46:35;;;;;;;18.70;16.90;;;18.50;99.90;;;;;;5086309;28;20040;-66
2021/07/04 02:49:01;;;;;;;19.33;17.35;;;18.40;99.90;;;;;;5083765;28;20044;-65
2021/07/04 02:51:28;;;;;;;18.30;16.33;;;18.40;99.90;;;;;;5084230;28;20036;-65
2021/07/04 02:53:53;;;;;;;19.88;17.13;;;18.50;99.90;;;;;;5084808;28;20482;-66
2021/07/04 02:56:19;;;;;;;20.95;18.75;;;18.40;99.90;;;;;;5085055;28;20032;-65
2021/07/04 02:58:46;;;;;;;19.15;17.27;;;18.40;99.90;;;;;;5083310;28;20438;-65
2021/07/04 03:01:12;;;;;;;20.25;18.13;;;18.40;99.90;;;;;;5080896;28;20534;-66
2021/07/04 03:03:37;;;;;;;19.85;18.05;;;18.40;99.90;;;;;;5082626;28;20414;-65
2021/07/04 03:06:03;;;;;;;21.45;19.23;;;18.40;99.90;;;;;;5083187;28;20032;-65
2021/07/04 03:08:29;;;;;;;20.23;18.20;;;18.40;99.90;;;;;;5085044;28;20123;-65
2021/07/04 03:10:55;;;;;;;19.88;17.88;;;18.40;99.90;;;;;;5082381;28;20039;-65
2021/07/04 03:13:21;;;;;;;20.23;18.13;;;18.40;99.90;;;;;;5081879;28;20040;-65
2021/07/04 03:15:46;;;;;;;21.40;18.98;;;18.40;99.90;;;;;;5079662;28;20050;-66
2021/07/04 03:18:12;;;;;;;20.58;17.95;;;18.40;99.90;;;;;;5086508;28;20093;-66
2021/07/04 03:20:38;;;;;;;20.80;18.80;;;18.40;99.90;;;;;;5080571;28;20040;-66
2021/07/04 03:23:04;;;;;;;19.38;17.58;;;18.40;99.90;;;;;;5080505;28;20047;-65
2021/07/04 03:25:30;;;;;;;19.55;17.17;;;18.40;99.90;;;;;;5081065;28;20545;-66
2021/07/04 03:27:56;;;;;;;22.27;19.02;;;18.50;99.90;;;;;;5079950;28;20040;-66
2021/07/04 03:30:22;;;;;;;20.63;18.63;;;18.50;99.90;;;;;;5085615;28;20431;-65
2021/07/04 03:32:49;;;;;;;19.90;18.00;;;18.50;99.90;;;;;;5081934;28;20624;-66
2021/07/04 03:35:16;;;;;;;18.55;16.63;;;18.50;99.90;;;;;;5083340;28;20402;-65
2021/07/04 03:37:43;;;;;;;21.02;19.05;;;18.50;99.90;;;;;;5082868;28;20041;-65
2021/07/04 03:40:13;;;;;;;20.75;18.85;;;18.50;99.90;;;;;;5082130;28;20533;-65
2021/07/04 03:42:39;;;;;;;19.88;18.02;;;18.50;99.90;;;;;;5082272;28;20048;-65
2021/07/04 03:45:06;;;;;;;19.80;17.83;;;18.60;99.90;;;;;;5083772;28;20028;-66
2021/07/04 03:47:32;;;;;;;19.48;17.67;;;18.60;99.90;;;;;;5080230;28;20078;-65
2021/07/04 03:49:59;;;;;;;20.45;18.55;;;18.50;99.90;;;;;;5079019;28;20093;-65
2021/07/04 03:52:25;;;;;;;21.63;19.42;;;18.50;99.90;;;;;;5082591;28;20033;-65
2021/07/04 03:54:50;;;;;;;21.42;19.33;;;18.50;99.90;;;;;;5083052;28;20579;-65
2021/07/04 03:57:22;;;;;;;21.98;19.70;;;18.60;99.90;;;;;;5084497;28;20059;-66
2021/07/04 03:59:57;;;;;;;23.15;19.77;;;18.60;99.90;;;;;;5084187;28;20032;-66
2021/07/04 04:02:24;;;;;;;21.92;19.63;;;18.60;99.90;;;;;;5080052;28;20103;-66
2021/07/04 04:04:54;;;;;;;21.83;19.45;;;18.60;99.90;;;;;;5077628;28;20097;-66
2021/07/04 04:07:38;;;;;;;23.65;21.23;;;18.60;99.90;;;;;;5082559;28;20051;-66
2021/07/04 04:10:08;;;;;;;22.25;19.92;;;18.70;99.90;;;;;;5082104;28;20036;-66
2021/07/04 04:12:34;;;;;;;21.75;19.63;;;18.70;99.90;;;;;;5081557;28;20032;-66
2021/07/04 04:15:00;;;;;;;23.17;20.88;;;18.70;99.90;;;;;;5082246;28;20047;-65
2021/07/04 04:17:29;;;;;;;23.63;21.13;;;18.70;99.90;;;;;;5080665;28;20031;-66
2021/07/04 04:19:58;;;;;;;22.17;19.85;;;18.70;99.90;;;;;;5082752;28;20199;-65
2021/07/04 04:22:24;;;;;;;25.45;21.63;;;18.70;99.90;;;;;;5084678;28;20092;-66
2021/07/04 04:24:50;;;;;;;24.73;22.02;;;18.70;99.90;;;;;;5085143;28;20428;-66
2021/07/04 04:27:16;;;;;;;20.90;18.98;;;18.80;99.90;;;;;;5080378;28;20036;-66
2021/07/04 04:29:42;;;;;;;21.60;19.38;;;18.70;99.90;;;;;;5081759;28;20039;-65
2021/07/04 04:32:08;;;;;;;20.20;18.25;;;18.70;99.90;;;;;;5082046;28;20200;-66
2021/07/04 04:34:34;;;;;;;21.48;18.25;;;18.70;99.90;;;;;;5081223;28;20044;-65
2021/07/04 04:37:02;;;;;;;20.17;18.17;;;18.80;99.90;;;;;;5083763;28;20111;-66
2021/07/04 04:39:28;;;;;;;19.75;17.88;;;18.80;99.90;;;;;;5080946;28;20051;-66
2021/07/04 04:41:53;;;;;;;20.15;18.15;;;18.80;99.90;;;;;;5080157;28;20032;-66
2021/07/04 04:44:19;;;;;;;21.63;19.52;;;18.80;99.90;;;;;;5079206;28;20047;-66
2021/07/04 04:46:45;;;;;;;19.83;17.83;;;18.80;99.90;;;;;;5079315;28;20039;-66
2021/07/04 04:49:11;;;;;;;19.98;18.05;;;18.80;99.90;;;;;;5078155;28;20047;-66
2021/07/04 04:51:38;;;;;;;19.02;17.20;;;18.80;99.90;;;;;;5079071;28;20032;-65
2021/07/04 04:54:05;;;;;;;19.05;17.25;;;18.80;99.90;;;;;;5080439;28;20046;-65
2021/07/04 04:56:31;;;;;;;18.52;16.77;;;18.80;99.90;;;;;;5082092;28;20444;-66
2021/07/04 04:58:57;;;;;;;18.90;17.05;;;18.90;99.90;;;;;;5081508;28;20048;-65
2021/07/04 05:01:28;;;;;;;18.67;16.90;;;18.80;99.90;;;;;;5078509;28;20048;-66
2021/07/04 05:03:55;;;;;;;17.90;15.57;;;18.90;99.90;;;;;;5079344;28;20045;-66
2021/07/04 05:06:21;;;;;;;19.23;17.20;;;19.00;99.90;;;;;;5077120;28;20494;-66
2021/07/04 05:08:47;;;;;;;20.17;16.65;;;18.90;99.90;;;;;;5082011;28;20047;-66
2021/07/04 05:11:12;;;;;;;18.10;16.15;;;18.90;99.90;;;;;;5077574;28;21509;-66
2021/07/04 05:13:38;;;;;;;17.27;15.18;;;18.90;99.90;;;;;;5079973;28;20119;-65
2021/07/04 05:16:05;;;;;;;16.10;14.40;;;18.90;99.90;;;;;;5076953;28;20047;-66
2021/07/04 05:18:32;;;;;;;18.30;15.30;;;18.90;99.90;;;;;;5076777;28;20032;-65
2021/07/04 05:20:58;;;;;;;16.42;14.73;;;18.90;99.90;;;;;;5078396;28;20048;-65
2021/07/04 05:23:24;;;;;;;16.20;14.48;;;18.90;99.90;;;;;;5080491;28;20040;-65
2021/07/04 05:25:50;;;;;;;15.45;13.95;;;19.00;99.90;;;;;;5077244;28;20517;-66
2021/07/04 05:28:17;;;;;;;14.80;13.40;;;19.10;99.90;;;;;;5078973;28;20613;-65
2021/07/04 05:30:43;;;;;;;14.43;13.13;;;19.10;99.90;;;;;;5085113;28;20048;-65
2021/07/04 05:33:08;;;;;;;15.07;13.35;;;19.20;99.90;;;;;;5084148;28;20109;-65
2021/07/04 05:35:34;;;;;;;14.57;13.05;;;19.20;99.90;;;;;;5084090;28;20041;-65
2021/07/04 05:38:00;;;;;;;13.52;11.95;;;19.30;99.90;;;;;;5084199;28;20089;-65
2021/07/04 05:40:26;;;;;;;13.00;11.90;;;19.30;99.90;;;;;;5082832;28;20036;-66
2021/07/04 05:42:53;;;;;;;12.85;11.57;;;19.40;99.90;;;;;;5083374;28;20090;-66
2021/07/04 05:45:25;;;;;;;12.48;11.38;;;19.40;99.90;;;;;;5084001;28;20546;-66
2021/07/04 05:47:52;;;;;;;13.85;12.38;;;19.50;99.90;;;;;;5084577;28;20067;-66
2021/07/04 05:50:18;;;;;;;13.80;12.40;;;19.40;99.90;;;;;;5082703;28;20057;-66
2021/07/04 05:52:45;;;;;;;13.45;11.90;;;19.40;99.90;;;;;;5083021;28;20040;-66
2021/07/04 05:55:12;;;;;;;12.48;11.43;;;19.40;99.90;;;;;;5084566;28;20174;-66
2021/07/04 05:57:38;;;;;;;13.18;12.07;;;19.40;99.90;;;;;;5081728;28;20067;-65
2021/07/04 06:00:07;;;;;;;13.60;12.25;;;19.30;99.90;;;;;;5084808;28;20162;-65
2021/07/04 06:02:33;;;;;;;13.88;12.57;;;19.40;99.90;;;;;;5084161;28;20037;-66
2021/07/04 06:04:59;;;;;;;13.80;12.52;;;19.30;99.90;;;;;;5085396;28;20431;-66
2021/07/04 06:07:24;;;;;;;14.55;13.15;;;19.30;99.90;;;;;;5079348;28;20044;-66
2021/07/04 06:09:50;;;;;;;15.40;13.82;;;19.40;99.90;;;;;;5081539;28;20477;-66
2021/07/04 06:12:16;;;;;;;13.95;12.65;;;19.40;99.90;;;;;;5081015;28;20533;-66
2021/07/04 06:14:42;;;;;;;14.13;12.80;;;19.50;99.90;;;;;;5086040;28;20114;-66
2021/07/04 06:17:07;;;;;;;14.23;12.98;;;19.40;99.90;;;;;;5086746;28;20039;-65
2021/07/04 06:19:33;;;;;;;13.45;12.25;;;19.50;99.90;;;;;;5088908;28;20110;-66
2021/07/04 06:21:59;;;;;;;14.32;13.00;;;19.50;99.90;;;;;;5088822;28;20048;-66
2021/07/04 06:24:24;;;;;;;14.48;13.00;;;19.50;99.90;;;;;;5088175;28;20060;-66
2021/07/04 06:26:50;;;;;;;14.63;13.32;;;19.60;99.90;;;;;;5085017;28;20032;-66
2021/07/04 06:29:16;;;;;;;14.40;13.10;;;19.60;99.90;;;;;;5084135;28;20032;-66
2021/07/04 06:31:42;;;;;;;14.98;13.43;;;19.60;99.90;;;;;;5086052;28;20044;-66
2021/07/04 06:34:08;;;;;;;13.93;12.55;;;19.60;99.90;;;;;;5088338;28;20034;-66
2021/07/04 06:36:34;;;;;;;14.15;12.85;;;19.70;99.90;;;;;;5089962;28;20085;-65
2021/07/04 06:38:59;;;;;;;13.77;12.35;;;19.70;99.90;;;;;;5086442;28;20497;-66
2021/07/04 06:41:26;;;;;;;13.60;12.30;;;19.90;99.90;;;;;;5090354;28;20040;-66
2021/07/04 06:43:52;;;;;;;13.18;12.07;;;20.20;99.90;;;;;;5089766;28;20043;-66
2021/07/04 06:46:18;;;;;;;12.20;11.18;;;20.70;99.90;;;;;;5090000;28;20032;-66
2021/07/04 06:48:44;;;;;;;13.30;11.80;;;21.00;99.90;;;;;;5086172;28;20035;-66
2021/07/04 06:51:10;;;;;;;11.75;10.45;;;21.40;99.90;;;;;;5088952;28;20086;-66
2021/07/04 06:53:36;;;;;;;10.93;9.93;;;21.70;99.90;;;;;;5088860;28;20046;-66
2021/07/04 06:56:03;;;;;;;11.80;10.45;;;21.80;99.90;;;;;;5089174;28;20031;-66
2021/07/04 06:58:30;;;;;;;11.15;10.25;;;21.70;99.90;;;;;;5086814;28;20071;-66
2021/07/04 07:00:56;;;;;;;11.68;9.88;;;21.80;99.90;;;;;;5088854;28;20474;-66
2021/07/04 07:03:22;;;;;;;10.82;9.82;;;21.90;99.90;;;;;;5090529;28;20089;-66
2021/07/04 07:05:48;;;;;;;10.05;9.15;;;21.90;99.90;;;;;;5089560;28;20040;-66
2021/07/04 07:08:13;;;;;;;9.95;9.15;;;21.90;99.90;;;;;;5087708;28;20093;-66
2021/07/04 07:10:39;;;;;;;10.45;9.57;;;21.80;99.90;;;;;;5086675;28;20135;-66
2021/07/04 07:13:05;;;;;;;9.45;8.65;;;21.80;99.90;;;;;;5087939;28;20554;-66
2021/07/04 07:15:32;;;;;;;13.88;9.27;;;21.80;99.90;;;;;;5085575;28;20501;-66
2021/07/04 07:17:57;;;;;;;9.20;8.50;;;21.80;99.90;;;;;;5088605;28;20048;-66
2021/07/04 07:20:24;;;;;;;9.73;8.82;;;21.80;99.90;;;;;;5087754;28;20028;-66
2021/07/04 07:22:50;;;;;;;10.73;8.98;;;21.80;99.90;;;;;;5088214;28;20031;-66
2021/07/04 07:25:16;;;;;;;10.88;9.77;;;21.70;99.90;;;;;;5086683;28;20046;-66
2021/07/04 07:27:42;;;;;;;9.73;8.88;;;21.70;99.90;;;;;;5088651;28;20046;-66
2021/07/04 07:30:10;;;;;;;11.02;9.30;;;21.60;99.90;;;;;;5088529;28;20665;-66
2021/07/04 07:32:36;;;;;;;9.80;8.80;;;21.60;99.90;;;;;;5087598;28;20055;-66
2021/07/04 07:35:06;;;;;;;10.43;9.43;;;21.60;99.90;;;;;;5085678;28;20466;-66
2021/07/04 07:37:32;;;;;;;9.38;8.57;;;21.60;99.90;;;;;;5084178;28;20078;-66
2021/07/04 07:39:58;;;;;;;9.48;8.57;;;21.50;99.90;;;;;;5087106;28;20072;-66
2021/07/04 07:42:24;;;;;;;9.27;8.52;;;21.60;99.90;;;;;;5087260;28;20042;-66
2021/07/04 07:44:49;;;;;;;12.50;8.40;;;21.70;99.90;;;;;;5088510;28;20032;-66
2021/07/04 07:47:15;;;;;;;8.98;8.27;;;21.80;99.90;;;;;;5087512;28;20036;-66
2021/07/04 07:49:41;;;;;;;10.27;9.27;;;22.00;99.90;;;;;;5086018;28;20097;-66
2021/07/04 07:52:07;;;;;;;11.15;10.15;;;22.10;99.90;;;;;;5082193;28;20088;-66
2021/07/04 07:54:34;;;;;;;8.82;8.13;;;22.20;99.90;;;;;;5086383;28;20042;-66
2021/07/04 07:57:02;;;;;;;9.68;8.88;;;22.20;99.90;;;;;;5082601;28;20032;-66
2021/07/04 07:59:31;;;;;;;7.97;7.32;;;22.10;99.90;;;;;;5082869;28;20898;-66
2021/07/04 08:01:57;;;;;;;8.65;7.85;;;22.00;99.90;;;;;;5084564;28;20032;-66
2021/07/04 08:04:24;;;;;;;8.95;8.25;;;21.90;99.90;;;;;;5083899;28;20548;-66
2021/07/04 08:06:50;;;;;;;10.40;9.50;;;21.80;99.90;;;;;;5084608;28;20042;-66
2021/07/04 08:09:16;;;;;;;8.18;7.55;;;21.80;99.90;;;;;;5080379;28;20044;-67
2021/07/04 08:11:42;;;;;;;8.98;8.05;;;21.90;99.90;;;;;;5081155;28;20037;-66
2021/07/04 08:14:08;;;;;;;9.93;9.02;;;22.10;99.90;;;;;;5079754;28;20040;-66
2021/07/04 08:16:34;;;;;;;10.07;9.30;;;22.20;99.90;;;;;;5080011;28;20036;-66
2021/07/04 08:19:00;;;;;;;11.02;10.13;;;22.20;99.90;;;;;;5087323;28;20405;-66
2021/07/04 08:21:29;;;;;;;12.30;11.10;;;22.30;99.90;;;;;;5080852;28;20188;-66
2021/07/04 08:23:56;;;;;;;14.05;12.80;;;22.50;99.90;;;;;;5078034;28;20044;-66
2021/07/04 08:26:22;;;;;;;12.65;11.55;;;22.60;99.90;;;;;;5084939;28;21438;-66
2021/07/04 08:28:48;;;;;;;12.50;11.43;;;22.80;99.90;;;;;;5082463;28;20119;-66
2021/07/04 08:31:14;;;;;;;12.23;11.13;;;23.10;99.90;;;;;;5081622;28;20196;-66
2021/07/04 08:33:40;;;;;;;11.38;10.27;;;23.40;99.90;;;;;;5082658;28;20545;-66
2021/07/04 08:36:07;;;;;;;11.82;10.82;;;23.50;99.90;;;;;;5084420;28;20049;-66
2021/07/04 08:38:32;;;;;;;12.18;10.95;;;23.70;99.90;;;;;;5079548;28;20032;-66
2021/07/04 08:40:58;;;;;;;11.18;10.05;;;23.90;99.90;;;;;;5079647;28;20498;-67
2021/07/04 08:43:29;;;;;;;10.52;9.63;;;24.00;98.50;;;;;;5084170;28;20036;-67
2021/07/04 08:45:56;;;;;;;10.45;9.60;;;24.00;98.60;;;;;;5079402;28;20093;-66
2021/07/04 08:48:22;;;;;;;9.73;8.93;;;23.70;98.40;;;;;;5080831;28;20155;-66
2021/07/04 08:50:49;;;;;;;11.60;10.43;;;23.60;98.70;;;;;;5080344;28;20043;-66
2021/07/04 08:53:15;;;;;;;11.80;10.77;;;23.50;98.90;;;;;;5084271;28;20032;-66
2021/07/04 08:55:45;;;;;;;11.88;10.80;;;23.70;97.20;;;;;;5083899;28;20486;-66
2021/07/04 08:58:11;;;;;;;10.18;9.27;;;23.80;98.10;;;;;;5082160;28;20531;-66
2021/07/04 09:00:38;;;;;;;11.35;10.15;;;23.80;98.10;;;;;;5083540;28;20079;-67
2021/07/04 09:03:36;;;;;;;12.02;10.80;;;23.90;98.10;;;;;;5082245;28;20032;-67
2021/07/04 09:06:03;;;;;;;16.75;15.15;;;24.10;97.70;;;;;;5051813;28;20047;-66
2021/07/04 09:08:29;;;;;;;16.27;14.85;;;24.10;96.70;;;;;;5081911;28;20044;-66
2021/07/04 09:11:16;;;;;;;21.45;18.98;;;23.90;96.70;;;;;;5083366;28;20075;-66
2021/07/04 09:13:46;;;;;;;14.65;13.38;;;23.80;97.20;;;;;;5082695;28;20036;-66
2021/07/04 09:16:19;;;;;;;15.50;14.15;;;23.60;97.70;;;;;;5078843;28;20040;-66
2021/07/04 09:19:13;;;;;;;16.15;14.60;;;23.50;98.10;;;;;;5081621;28;20051;-66
2021/07/04 09:21:39;;;;;;;13.30;12.18;;;23.60;98.40;;;;;;5085285;28;20078;-66
2021/07/04 09:24:25;;;;;;;13.85;12.55;;;23.70;98.30;;;;;;5083613;28;20068;-66
2021/07/04 09:26:52;;;;;;;15.40;14.00;;;23.70;98.20;;;;;;5080631;28;20035;-66
2021/07/04 09:29:42;;;;;;;15.73;14.32;;;23.70;98.20;;;;;;5082331;28;20044;-66
2021/07/04 09:32:24;;;;;;;15.75;14.20;;;23.60;98.20;;;;;;5081105;28;20033;-67
2021/07/04 09:35:05;;;;;;;15.68;14.13;;;23.50;98.70;;;;;;5081461;28;20040;-67
2021/07/04 09:37:38;;;;;;;13.25;11.90;;;23.60;98.80;;;;;;5078698;28;20059;-67
2021/07/04 09:40:16;;;;;;;15.05;13.75;;;23.70;99.10;;;;;;5084488;28;20036;-67
2021/07/04 09:43:08;;;;;;;16.00;14.50;;;23.90;98.50;;;;;;5082125;28;20043;-67
2021/07/04 09:45:53;;;;;;;17.48;16.00;;;24.10;98.00;;;;;;5083610;28;20059;-67
2021/07/04 09:48:20;;;;;;;21.40;19.42;;;24.40;97.40;;;;;;5085090;28;20075;-67
2021/07/04 09:50:48;;;;;;;19.65;17.70;;;24.40;96.70;;;;;;5083860;28;20108;-67
2021/07/04 09:53:15;;;;;;;24.00;21.73;;;24.30;96.80;;;;;;5085008;28;20044;-67
2021/07/04 09:55:41;;;;;;;24.15;21.85;;;24.20;96.80;;;;;;5084781;28;20043;-67
2021/07/04 09:58:09;;;;;;;23.63;21.42;;;24.10;96.80;;;;;;5086299;28;20426;-67
2021/07/04 10:00:38;;;;;;;23.40;21.10;;;24.20;96.80;;;;;;5085715;28;20050;-67
2021/07/04 10:03:12;;;;;;;25.15;22.73;;;24.30;96.80;;;;;;5082179;28;20037;-67
2021/07/04 10:05:52;;;;;;;23.25;21.08;;;24.40;96.30;;;;;;5081843;28;20093;-66
2021/07/04 10:08:30;;;;;;;19.65;17.83;;;24.50;96.60;;;;;;5084177;28;20605;-67
2021/07/04 10:11:09;;;;;;;17.27;15.68;;;24.60;95.70;;;;;;5084323;28;20532;-67
2021/07/04 10:13:37;;;;;;;16.83;15.25;;;25.00;96.60;;;;;;5082631;28;20082;-67
2021/07/04 10:16:08;;;;;;;15.30;13.88;;;25.20;94.50;;;;;;5089145;28;20040;-67
2021/07/04 10:18:34;;;;;;;14.05;12.68;;;25.30;94.90;;;;;;5088138;28;20035;-67
2021/07/04 10:21:00;;;;;;;14.45;12.70;;;25.30;94.00;;;;;;5089385;28;20036;-67
2021/07/04 10:23:28;;;;;;;13.35;12.05;;;25.40;93.90;;;;;;5086276;28;20052;-67
2021/07/04 10:25:56;;;;;;;14.50;13.10;;;25.50;94.50;;;;;;5091104;28;20371;-67
2021/07/04 10:28:31;;;;;;;12.25;11.15;;;25.50;94.10;;;;;;5089528;28;20036;-67
2021/07/04 10:30:58;;;;;;;13.18;11.80;;;25.60;92.50;;;;;;5088220;28;20156;-67
2021/07/04 10:33:26;;;;;;;15.27;13.80;;;25.80;93.40;;;;;;5084490;28;20081;-67
2021/07/04 10:36:00;;;;;;;15.15;13.75;;;25.70;93.20;;;;;;5085984;28;20044;-67
2021/07/04 10:38:37;;;;;;;14.55;13.13;;;25.60;92.50;;;;;;5084663;28;20032;-67
2021/07/04 10:41:08;;;;;;;14.57;13.18;;;25.50;92.80;;;;;;5087966;28;20036;-67
2021/07/04 10:43:53;;;;;;;14.95;13.55;;;25.70;93.40;;;;;;5086865;28;20060;-67
2021/07/04 10:46:39;;;;;;;13.88;12.48;;;25.60;93.30;;;;;;5086841;28;20043;-67
2021/07/04 10:49:10;;;;;;;14.77;13.30;;;25.60;93.00;;;;;;5089455;28;20040;-67
2021/07/04 10:51:56;;;;;;;13.98;12.68;;;25.50;93.30;;;;;;5089878;28;20051;-67
2021/07/04 10:54:41;;;;;;;13.77;12.43;;;25.40;92.20;;;;;;5086807;28;20043;-67
2021/07/04 10:57:08;;;;;;;16.58;14.20;;;25.30;93.40;;;;;;5084730;28;20036;-67
2021/07/04 10:59:47;;;;;;;16.58;15.02;;;25.30;92.80;;;;;;5081892;28;20032;-67
2021/07/04 11:02:57;;;;;;;17.98;16.08;;;25.30;92.60;;;;;;5085029;28;20424;-67
2021/07/04 11:05:34;;;;;;;17.63;15.82;;;25.20;93.50;;;;;;5086385;28;20497;-67
2021/07/04 11:07:59;;;;;;;17.83;16.15;;;25.40;93.90;;;;;;5084111;28;20036;-67
2021/07/04 11:10:31;;;;;;;15.25;13.75;;;25.40;92.30;;;;;;5086940;28;20039;-67
2021/07/04 11:13:13;;;;;;;16.58;14.98;;;25.50;92.70;;;;;;5087302;28;20036;-67
2021/07/04 11:15:40;;;;;;;16.35;14.73;;;25.40;93.40;;;;;;5088264;28;20046;-67
2021/07/04 11:18:08;;;;;;;14.25;12.70;;;25.40;93.60;;;;;;5084701;28;20477;-67
2021/07/04 11:20:44;;;;;;;12.40;11.30;;;25.50;93.40;;;;;;5089178;28;20032;-67
2021/07/04 11:23:21;;;;;;;12.50;11.40;;;25.70;93.10;;;;;;5085675;28;20040;-67
2021/07/04 11:25:51;;;;;;;14.63;13.25;;;25.80;92.70;;;;;;5082567;28;20064;-67
2021/07/04 11:28:17;;;;;;;13.88;12.50;;;25.70;92.10;;;;;;5083426;28;20032;-67
2021/07/04 11:30:43;;;;;;;12.93;11.73;;;25.80;92.40;;;;;;5088446;28;20062;-67
2021/07/04 11:33:36;;;;;;;14.30;12.82;;;25.80;92.60;;;;;;5086908;28;20058;-67
2021/07/04 11:36:15;;;;;;;13.98;12.23;;;25.60;92.10;;;;;;5062261;28;20032;-67
2021/07/04 11:38:53;;;;;;;15.68;11.77;;;25.50;92.50;;;;;;5087583;28;20088;-67
2021/07/04 11:41:26;;;;;;;12.70;11.50;;;25.70;92.20;;;;;;5087294;28;20041;-67
2021/07/04 11:44:10;;;;;;;13.68;11.82;;;25.80;92.30;;;;;;5084899;28;20088;-67
2021/07/04 11:46:45;;;;;;;12.25;11.13;;;26.00;91.90;;;;;;5084928;28;20052;-67
2021/07/04 11:49:11;;;;;;;12.05;10.95;;;25.90;92.20;;;;;;5086558;28;20041;-67
2021/07/04 11:51:53;;;;;;;11.68;10.52;;;25.90;91.80;;;;;;5084927;28;20051;-67
2021/07/04 11:54:24;;;;;;;12.60;11.30;;;26.10;91.90;;;;;;5084486;28;20036;-67
2021/07/04 11:56:55;;;;;;;12.70;11.50;;;26.40;91.20;;;;;;5085220;28;20123;-67
2021/07/04 11:59:25;;;;;;;11.52;10.50;;;26.40;90.20;;;;;;5088312;28;20619;-67
2021/07/04 12:01:58;;;;;;;12.25;11.15;;;26.40;89.90;;;;;;5086945;28;20111;-67
2021/07/04 12:04:33;;;;;;;12.73;11.45;;;26.20;90.10;;;;;;5084228;28;20081;-67
2021/07/04 12:07:11;;;;;;;14.23;12.83;;;26.10;90.90;;;;;;5087202;28;20466;-67
2021/07/04 12:09:41;;;;;;;13.23;11.90;;;25.90;91.80;;;;;;5084691;28;20298;-67
2021/07/04 12:12:23;;;;;;;16.52;14.98;;;25.70;92.30;;;;;;5086870;28;20093;-67
2021/07/04 12:14:53;;;;;;;19.23;14.95;;;25.70;91.80;;;;;;5087536;28;20043;-67
2021/07/04 12:17:46;;;;;;;15.82;14.18;;;25.50;92.90;;;;;;5085651;28;20399;-67
2021/07/04 12:20:22;;;;;;;16.30;14.70;;;25.40;93.20;;;;;;5080667;28;20511;-67
2021/07/04 12:22:55;;;;;;;15.77;14.15;;;25.50;93.40;;;;;;5083993;28;20135;-67
2021/07/04 12:25:26;;;;;;;15.82;14.27;;;25.40;94.20;;;;;;5085111;28;20123;-67
2021/07/04 12:27:57;;;;;;;15.55;13.95;;;25.40;94.50;;;;;;5084922;28;20044;-67
2021/07/04 12:30:47;;;;;;;14.45;13.05;;;25.40;94.50;;;;;;5087089;28;20532;-67
2021/07/04 12:33:15;;;;;;;14.43;13.05;;;25.50;92.20;;;;;;5084794;28;20065;-67
2021/07/04 12:35:50;;;;;;;14.32;12.77;;;25.30;92.60;;;;;;5082578;28;20075;-67
2021/07/04 12:38:28;;;;;;;15.55;14.00;;;25.30;92.90;;;;;;5086531;28;20401;-67